Terminal Aerodrome Forecast
Issued by NWS

Home | Current Version | Previous Version | Text Only | Print | Product List | Glossary On
Versions: 1 2 3 4 5 6 7 8 9 10 11
000
FTUS44 KSJT 172300
TAFSOA
TAF
KSOA 172320Z 1800/1824 12006KT P6SM SCT050
     FM180400 VRB04KT P6SM OVC012
     FM181800 11005KT P6SM SCT025=

USA.gov is the U.S. government's official web portal to all federal, state and local government web resources and services.